• Join FlightAware (Why Join?)
  • Login
  • US Flag 
04:37PM EDT


 

Airport Tracker/Info


-or-


 

Live Flight TrackerFlight Track Log ✈ EMD21 ✈ 16-Jun-2013 ✈ KTUL - KMLC

Flight Track Log - Related Links

Times and Time Zones

All times are in EDT time to prevent confusion due to time zone crossing. See the EMD21 flight status page for this flight to view local times or setup timezone preferences in your user account.

Time Position Orientation Groundspeed Altitude Reporting Facility
EDT Latitude Longitude Course Direction KTS MPH feet Rate Location/Type
07:05AM 36.1839 -95.9011 133° Southeast 117 135 1,200  Level Kansas City Center
07:06AM 36.1625 -95.8728 133° Southeast 136 157 2,400 1,140 Climbing Kansas City Center
07:07AM 36.1531 -95.8667 152° Southeast 126 145 2,700 900 Climbing Kansas City Center
07:07AM 36.1264 -95.8672 181° South 125 144 3,500 1,080 Climbing Kansas City Center
07:08AM 36.1169 -95.8656 172° South 128 147 3,800 1,200 Climbing Kansas City Center
07:08AM 36.0864 -95.8647 179° South 145 167 4,700 1,200 Climbing Kansas City Center
07:09AM 36.0772 -95.8644 179° South 138 159 5,000 1,200 Climbing Kansas City Center
07:09AM 36.0483 -95.8619 176° South 143 165 6,000 1,320 Climbing Kansas City Center
07:10AM 36.0381 -95.8597 170° South 141 162 6,300 660 Climbing Kansas City Center
07:11AM 35.9964 -95.8572 177° South 145 167 6,900 300 Climbing Kansas City Center
07:12AM 35.9403 -95.8569 180° South 185 213 7,000  Climbing Kansas City Center
07:13AM 35.8825 -95.8519 176° South 203 234 6,900 -60 Descending Kansas City Center
07:14AM 35.8233 -95.8464 176° South 209 241 6,900  Level Kansas City Center
07:15AM 35.7644 -95.8433 178° South 211 243 7,000  Climbing Kansas City Center
07:16AM 35.7061 -95.8389 176° South 211 243 6,900 -60 Descending Kansas City Center
07:17AM 35.6464 -95.8361 178° South 212 244 6,900  Level Kansas City Center
07:17AM 35.6236 -95.8381 184° South 216 249 6,900 60 Level Fort Worth Center
07:18AM 35.5672 -95.8339 177° South 216 249 7,000  Climbing Fort Worth Center
07:19AM 35.5067 -95.8250 173° South 216 249 7,000 -60 Level Fort Worth Center
07:20AM 35.4483 -95.8236 179° South 216 249 6,900  Descending Fort Worth Center
07:21AM 35.3897 -95.8169 175° South 216 249 7,100  Climbing Fort Worth Center
07:22AM 35.3336 -95.8156 179° South 216 249 7,000 -540 Descending Fort Worth Center
07:23AM 35.2731 -95.8092 175° South 221 254 6,100 -900 Descending Fort Worth Center
07:24AM 35.2103 -95.8053 177° South 221 254 5,300 -720 Descending Fort Worth Center
07:26AM 35.1089 -95.7994 177° South 217 250 4,200 -660 Descending Kansas City Center